createdAt,value
2018-07-17T00:00:48.592Z,1008.48
2018-07-17T00:01:57.994Z,1008.56
2018-07-17T00:03:07.927Z,1008.55
2018-07-17T00:04:17.337Z,1008.59
2018-07-17T00:05:26.481Z,1008.64
2018-07-17T00:06:35.653Z,1008.56
2018-07-17T00:07:45.056Z,1008.58
2018-07-17T00:08:54.204Z,1008.57
2018-07-17T00:10:03.605Z,1008.51
2018-07-17T00:11:12.766Z,1008.53
2018-07-17T00:12:21.953Z,1008.55
2018-07-17T00:13:31.104Z,1008.54
2018-07-17T00:14:40.520Z,1008.53
2018-07-17T00:15:49.673Z,1008.53
2018-07-17T00:16:58.819Z,1008.55
2018-07-17T00:18:08.479Z,1008.55
2018-07-17T00:19:17.878Z,1008.54
2018-07-17T00:20:27.798Z,1008.61
2018-07-17T00:21:36.944Z,1008.56
2018-07-17T00:22:46.103Z,1008.58
2018-07-17T00:23:56.019Z,1008.55
2018-07-17T00:25:05.680Z,1008.56
2018-07-17T00:26:14.830Z,1008.56
2018-07-17T00:27:24.489Z,1008.56
2018-07-17T00:28:33.393Z,1008.51
2018-07-17T00:29:42.300Z,1008.52
2018-07-17T00:30:51.711Z,1008.52
2018-07-17T00:32:00.867Z,1008.5
2018-07-17T00:33:10.803Z,1008.49
2018-07-17T00:34:20.476Z,1008.48
2018-07-17T00:35:29.635Z,1008.47
2018-07-17T00:36:38.804Z,1008.5
2018-07-17T00:37:48.212Z,1008.49
2018-07-17T00:38:57.645Z,1008.5
2018-07-17T00:40:07.056Z,1008.48
2018-07-17T00:41:16.966Z,1008.46
2018-07-17T00:42:26.377Z,1008.48
2018-07-17T00:43:35.537Z,1008.5
2018-07-17T00:44:45.197Z,1008.52
2018-07-17T00:45:54.357Z,1008.53
2018-07-17T00:47:03.498Z,1008.53
2018-07-17T00:48:13.160Z,1008.54
2018-07-17T00:49:22.304Z,1008.51
2018-07-17T00:50:31.715Z,1008.56
2018-07-17T00:51:41.127Z,1008.52
2018-07-17T00:52:50.787Z,1008.54
2018-07-17T00:53:59.936Z,1008.53
2018-07-17T00:55:08.579Z,1008.52
2018-07-17T00:56:17.984Z,1008.53
2018-07-17T00:57:27.412Z,1008.52
2018-07-17T00:58:36.816Z,1008.52
2018-07-17T00:59:46.381Z,1008.52
2018-07-17T01:00:56.073Z,1008.56
2018-07-17T01:02:05.560Z,1008.49
2018-07-17T01:03:14.977Z,1008.45
2018-07-17T01:04:24.117Z,1008.44
2018-07-17T01:05:33.808Z,1008.41
2018-07-17T01:06:42.702Z,1008.43
2018-07-17T01:07:52.097Z,1008.42
2018-07-17T01:09:01.757Z,1008.41
2018-07-17T01:10:11.425Z,1008.38
2018-07-17T01:11:20.603Z,1008.37
2018-07-17T01:12:30.027Z,1008.37
2018-07-17T01:13:39.161Z,1008.37
2018-07-17T01:14:48.821Z,1008.33
2018-07-17T01:15:57.970Z,1008.32
2018-07-17T01:17:06.870Z,1008.34
2018-07-17T01:18:16.268Z,1008.31
2018-07-17T01:19:25.676Z,1008.34
2018-07-17T01:20:35.087Z,1008.37
2018-07-17T01:21:44.235Z,1008.37
2018-07-17T01:22:53.123Z,1008.39
2018-07-17T01:24:03.056Z,1008.39
2018-07-17T01:25:12.713Z,1008.39
2018-07-17T01:26:22.119Z,1008.37
2018-07-17T01:27:31.005Z,1008.36
2018-07-17T01:28:40.424Z,1008.35
2018-07-17T01:29:50.097Z,1008.37
2018-07-17T01:30:59.758Z,1008.36
2018-07-17T01:32:09.169Z,1008.39
2018-07-17T01:33:18.853Z,1008.39
2018-07-17T01:34:27.995Z,1008.41
2018-07-17T01:35:37.420Z,1008.45
2018-07-17T01:36:46.831Z,1008.51
2018-07-17T01:37:56.503Z,1008.48
2018-07-17T01:39:06.179Z,1008.5
2018-07-17T01:40:15.846Z,1008.53
2018-07-17T01:41:25.506Z,1008.51
2018-07-17T01:42:34.912Z,1008.5
2018-07-17T01:43:44.847Z,1008.52
2018-07-17T01:44:53.736Z,1008.54
2018-07-17T01:46:02.895Z,1008.48
2018-07-17T01:47:12.571Z,1008.48
2018-07-17T01:48:21.717Z,1008.46
2018-07-17T01:49:30.878Z,1008.46
2018-07-17T01:50:40.303Z,1008.45
2018-07-17T01:51:49.451Z,1008.45
2018-07-17T01:52:58.853Z,1008.45
2018-07-17T01:54:08.274Z,1008.47
2018-07-17T01:55:17.934Z,1008.47
2018-07-17T01:56:27.871Z,1008.44
2018-07-17T01:57:37.011Z,1008.4
2018-07-17T01:58:46.223Z,1008.4
2018-07-17T01:59:55.643Z,1008.38
2018-07-17T02:01:05.071Z,1008.37
2018-07-17T02:02:14.496Z,1008.38
2018-07-17T02:03:23.648Z,1008.33
2018-07-17T02:04:32.788Z,1008.39
2018-07-17T02:05:42.194Z,1008.35
2018-07-17T02:06:51.597Z,1008.28
2018-07-17T02:08:01.275Z,1008.32
2018-07-17T02:09:10.423Z,1008.31
2018-07-17T02:10:19.847Z,1008.27
2018-07-17T02:11:29.267Z,1008.26
2018-07-17T02:12:38.421Z,1008.25
2018-07-17T02:13:48.092Z,1008.29
2018-07-17T02:14:57.516Z,1008.29
2018-07-17T02:16:06.419Z,1008.29
2018-07-17T02:17:16.090Z,1008.38
2018-07-17T02:18:25.754Z,1008.36
2018-07-17T02:19:35.156Z,1008.39
2018-07-17T02:20:44.392Z,1008.38
2018-07-17T02:21:54.061Z,1008.32
2018-07-17T02:23:03.466Z,1008.33
2018-07-17T02:24:12.869Z,1008.31
2018-07-17T02:25:21.763Z,1008.28
2018-07-17T02:26:30.663Z,1008.25
2018-07-17T02:27:40.082Z,1008.19
2018-07-17T02:28:49.487Z,1008.22
2018-07-17T02:29:58.891Z,1008.2
2018-07-17T02:31:08.555Z,1008.18
2018-07-17T02:32:17.707Z,1008.19
2018-07-17T02:33:27.395Z,1008.17
2018-07-17T02:34:37.057Z,1008.2
2018-07-17T02:35:46.471Z,1008.18
2018-07-17T02:36:55.878Z,1008.16
2018-07-17T02:38:05.810Z,1008.16
2018-07-17T02:39:15.728Z,1008.18
2018-07-17T02:40:25.137Z,1008.16
2018-07-17T02:41:34.549Z,1008.17
2018-07-17T02:42:44.287Z,1008.16
2018-07-17T02:43:53.693Z,1008.15
2018-07-17T02:45:02.837Z,1008.14
2018-07-17T02:46:12.756Z,1008.09
2018-07-17T02:47:22.427Z,1008.14
2018-07-17T02:48:32.093Z,1008.12
2018-07-17T02:49:41.518Z,1008.06
2018-07-17T02:50:50.918Z,1008.04
2018-07-17T02:52:00.323Z,1008.06
2018-07-17T02:53:10.003Z,1008.07
2018-07-17T02:54:19.154Z,1008.09
2018-07-17T02:55:28.843Z,1008.03
2018-07-17T02:56:38.783Z,1008.05
2018-07-17T02:57:48.193Z,1008.05
2018-07-17T02:58:57.590Z,1008.08
2018-07-17T03:00:07.302Z,1008.07
2018-07-17T03:01:16.721Z,1008.1
2018-07-17T03:02:26.428Z,1008.14
2018-07-17T03:03:36.117Z,1008.22
2018-07-17T03:04:45.799Z,1008.24
2018-07-17T03:05:55.468Z,1008.27
2018-07-17T03:07:04.422Z,1008.29
2018-07-17T03:08:13.829Z,1008.34
2018-07-17T03:09:23.249Z,1008.31
2018-07-17T03:10:32.401Z,1008.38
2018-07-17T03:11:42.070Z,1008.43
2018-07-17T03:12:51.471Z,1008.45
2018-07-17T03:14:01.132Z,1008.52
2018-07-17T03:15:10.825Z,1008.58
2018-07-17T03:16:19.984Z,1008.61
2018-07-17T03:17:29.134Z,1008.64
2018-07-17T03:18:39.061Z,1008.67
2018-07-17T03:19:48.730Z,1008.71
2018-07-17T03:20:58.148Z,1008.73
2018-07-17T03:22:07.301Z,1008.78
2018-07-17T03:23:16.775Z,1008.8
2018-07-17T03:24:26.717Z,1008.81
2018-07-17T03:25:37.177Z,1008.8
2018-07-17T03:26:46.601Z,1008.8
2018-07-17T03:27:55.524Z,1008.77
2018-07-17T03:29:05.189Z,1008.75
2018-07-17T03:30:14.350Z,1008.72
2018-07-17T03:31:23.275Z,1008.72
2018-07-17T03:32:32.952Z,1008.77
2018-07-17T03:33:42.623Z,1008.86
2018-07-17T03:34:51.281Z,1008.93
2018-07-17T03:36:00.951Z,1009.02
2018-07-17T03:37:10.369Z,1009.03
2018-07-17T03:38:20.049Z,1009.03
2018-07-17T03:39:29.463Z,1008.97
2018-07-17T03:40:39.177Z,1008.95
2018-07-17T03:41:48.326Z,1008.93
2018-07-17T03:42:57.746Z,1008.89
2018-07-17T03:44:07.150Z,1008.86
2018-07-17T03:45:16.550Z,1008.85
2018-07-17T03:46:25.966Z,1008.9
2018-07-17T03:47:35.681Z,1008.88
2018-07-17T03:48:45.343Z,1008.94
2018-07-17T03:49:54.494Z,1008.92
2018-07-17T03:51:04.184Z,1008.93
2018-07-17T03:52:13.609Z,1008.9
2018-07-17T03:53:22.497Z,1008.93
2018-07-17T03:54:32.158Z,1008.91
2018-07-17T03:55:41.318Z,1008.93
2018-07-17T03:56:50.995Z,1008.92
2018-07-17T03:57:59.635Z,1008.89
2018-07-17T03:59:08.533Z,1008.88
2018-07-17T04:00:17.431Z,1008.82
2018-07-17T04:01:26.320Z,1008.81
2018-07-17T04:02:35.741Z,1008.83
2018-07-17T04:03:45.230Z,1008.86
2018-07-17T04:04:55.164Z,1008.87
2018-07-17T04:06:04.824Z,1008.88
2018-07-17T04:07:14.509Z,1008.84
2018-07-17T04:08:23.924Z,1008.82
2018-07-17T04:09:33.360Z,1008.82
2018-07-17T04:10:43.041Z,1008.87
2018-07-17T04:11:52.446Z,1008.89
2018-07-17T04:13:02.101Z,1008.96
2018-07-17T04:14:10.988Z,1008.92
2018-07-17T04:15:20.391Z,1008.92
2018-07-17T04:16:29.799Z,1008.94
2018-07-17T04:17:39.458Z,1009
2018-07-17T04:18:48.859Z,1009
2018-07-17T04:19:58.516Z,1009
2018-07-17T04:21:07.930Z,1009.04
2018-07-17T04:22:17.076Z,1009
2018-07-17T04:23:27.044Z,1008.98
2018-07-17T04:24:36.460Z,1008.97
2018-07-17T04:25:46.139Z,1008.99
2018-07-17T04:26:55.811Z,1009.03
2018-07-17T04:28:04.967Z,1009.03
2018-07-17T04:29:14.142Z,1009
2018-07-17T04:30:23.842Z,1009.01
2018-07-17T04:31:33.532Z,1009.05
2018-07-17T04:32:43.955Z,1009.03
2018-07-17T04:33:53.889Z,1009.05
2018-07-17T04:35:03.309Z,1009.06
2018-07-17T04:36:12.706Z,1009.06
2018-07-17T04:37:22.132Z,1009.08
2018-07-17T04:38:31.906Z,1009.15
2018-07-17T04:39:41.491Z,1009.16
2018-07-17T04:40:51.160Z,1009.15
2018-07-17T04:42:00.311Z,1009.13
2018-07-17T04:43:10.254Z,1009.16
2018-07-17T04:44:19.999Z,1009.14
2018-07-17T04:45:28.949Z,1009.13
2018-07-17T04:46:37.838Z,1009.17
2018-07-17T04:47:47.496Z,1009.17
2018-07-17T04:48:56.902Z,1009.21
2018-07-17T04:50:05.807Z,1009.2
2018-07-17T04:51:15.222Z,1009.26
2018-07-17T04:52:24.360Z,1009.21
2018-07-17T04:53:33.266Z,1009.18
2018-07-17T04:54:42.426Z,1009.23
2018-07-17T04:55:51.580Z,1009.23
2018-07-17T04:57:00.993Z,1009.26
2018-07-17T04:58:10.435Z,1009.27
2018-07-17T04:59:20.107Z,1009.27
2018-07-17T05:00:29.771Z,1009.27
2018-07-17T05:01:39.258Z,1009.25
2018-07-17T05:02:49.464Z,1009.27
2018-07-17T05:03:59.148Z,1009.31
2018-07-17T05:05:09.073Z,1009.34
2018-07-17T05:06:18.478Z,1009.33
2018-07-17T05:07:28.147Z,1009.37
2018-07-17T05:08:38.068Z,1009.36
2018-07-17T05:09:47.503Z,1009.4
2018-07-17T05:10:57.194Z,1009.39
2018-07-17T05:12:06.597Z,1009.42
2018-07-17T05:13:15.758Z,1009.46
2018-07-17T05:14:25.410Z,1009.46
2018-07-17T05:15:35.079Z,1009.53
2018-07-17T05:16:44.742Z,1009.53
2018-07-17T05:17:54.145Z,1009.56
2018-07-17T05:19:03.579Z,1009.58
2018-07-17T05:20:12.760Z,1009.54
2018-07-17T05:21:23.140Z,1009.58
2018-07-17T05:22:32.983Z,1009.55
2018-07-17T05:23:41.616Z,1009.55
2018-07-17T05:24:51.530Z,1009.52
2018-07-17T05:26:00.686Z,1009.54
2018-07-17T05:27:09.835Z,1009.53
2018-07-17T05:28:19.521Z,1009.52
2018-07-17T05:29:29.223Z,1009.52
2018-07-17T05:30:38.642Z,1009.54
2018-07-17T05:31:48.321Z,1009.54
2018-07-17T05:32:57.479Z,1009.53
2018-07-17T05:34:06.880Z,1009.54
2018-07-17T05:35:16.142Z,1009.53
2018-07-17T05:36:26.122Z,1009.54
2018-07-17T05:37:35.971Z,1009.55
2018-07-17T05:38:45.369Z,1009.61
2018-07-17T05:39:54.518Z,1009.6
2018-07-17T05:41:03.674Z,1009.6
2018-07-17T05:42:12.845Z,1009.61
2018-07-17T05:43:22.545Z,1009.6
2018-07-17T05:44:31.955Z,1009.63
2018-07-17T05:45:40.615Z,1009.66
2018-07-17T05:46:50.528Z,1009.67
2018-07-17T05:48:00.198Z,1009.61
2018-07-17T05:49:09.889Z,1009.61
2018-07-17T05:50:19.039Z,1009.61
2018-07-17T05:51:28.952Z,1009.66
2018-07-17T05:52:38.354Z,1009.62
2018-07-17T05:53:48.057Z,1009.65
2018-07-17T05:54:56.949Z,1009.68
2018-07-17T05:56:06.407Z,1009.67
2018-07-17T05:57:16.069Z,1009.68
2018-07-17T05:58:25.232Z,1009.7
2018-07-17T05:59:34.629Z,1009.68
2018-07-17T06:00:44.288Z,1009.71
2018-07-17T06:01:53.694Z,1009.66
2018-07-17T06:03:03.145Z,1009.7
2018-07-17T06:04:12.868Z,1009.65
2018-07-17T06:05:21.650Z,1009.69
2018-07-17T06:06:30.806Z,1009.72
2018-07-17T06:07:40.740Z,1009.73
2018-07-17T06:08:49.705Z,1009.76
2018-07-17T06:09:59.116Z,1009.71
2018-07-17T06:11:09.063Z,1009.72
2018-07-17T06:12:17.704Z,1009.7
2018-07-17T06:13:27.123Z,1009.71
2018-07-17T06:14:36.272Z,1009.73
2018-07-17T06:15:45.946Z,1009.72
2018-07-17T06:16:55.438Z,1009.75
2018-07-17T06:18:04.871Z,1009.75
2018-07-17T06:19:14.279Z,1009.71
2018-07-17T06:20:23.697Z,1009.72
2018-07-17T06:21:32.938Z,1009.72
2018-07-17T06:22:42.121Z,1009.75
2018-07-17T06:23:51.275Z,1009.77
2018-07-17T06:25:00.783Z,1009.77
2018-07-17T06:26:11.053Z,1009.81
2018-07-17T06:27:20.468Z,1009.81
2018-07-17T06:28:29.868Z,1009.78
2018-07-17T06:29:39.095Z,1009.87
2018-07-17T06:30:48.267Z,1009.83
2018-07-17T06:31:57.922Z,1009.9
2018-07-17T06:33:07.151Z,1009.91
2018-07-17T06:34:16.485Z,1009.9
2018-07-17T06:35:26.156Z,1009.9
2018-07-17T06:36:35.560Z,1009.91
2018-07-17T06:37:44.983Z,1009.94
2018-07-17T06:38:54.231Z,1009.93
2018-07-17T06:40:03.485Z,1009.93
2018-07-17T06:41:12.666Z,1009.92
2018-07-17T06:42:21.843Z,1009.9
2018-07-17T06:43:31.522Z,1009.97
2018-07-17T06:44:40.968Z,1009.93
2018-07-17T06:45:51.221Z,1009.98
2018-07-17T06:47:00.689Z,1009.93
2018-07-17T06:48:09.851Z,1009.92
2018-07-17T06:49:19.779Z,1009.94
2018-07-17T06:50:29.103Z,1009.95
2018-07-17T06:51:38.646Z,1009.99
2018-07-17T06:52:48.308Z,1010.02
2018-07-17T06:53:57.448Z,1009.96
2018-07-17T06:55:07.133Z,1009.97
2018-07-17T06:56:16.805Z,1009.97
2018-07-17T06:57:25.973Z,1009.99
2018-07-17T06:58:36.050Z,1010.04
2018-07-17T06:59:45.201Z,1010.05
2018-07-17T07:00:54.870Z,1010.01
2018-07-17T07:02:04.296Z,1010.02
2018-07-17T07:03:13.706Z,1010
2018-07-17T07:04:22.621Z,1010.02
2018-07-17T07:05:32.027Z,1010.02
2018-07-17T07:06:41.444Z,1010
2018-07-17T07:07:50.366Z,1010.01
2018-07-17T07:08:59.770Z,1010.01
2018-07-17T07:10:08.938Z,1010.03
2018-07-17T07:11:19.056Z,1010.06
2018-07-17T07:12:28.453Z,1010.08
2018-07-17T07:13:37.883Z,1010.11
2018-07-17T07:14:47.306Z,1010.11
2018-07-17T07:15:56.724Z,1010.11
2018-07-17T07:17:06.150Z,1010.09
2018-07-17T07:18:15.827Z,1010.13
2018-07-17T07:19:25.253Z,1010.12
2018-07-17T07:20:34.935Z,1010.1
2018-07-17T07:21:44.619Z,1010.07
2018-07-17T07:22:53.781Z,1010.09
2018-07-17T07:24:02.941Z,1010.05
2018-07-17T07:25:12.348Z,1010.11
2018-07-17T07:26:21.775Z,1010.08
2018-07-17T07:27:30.659Z,1010.09
2018-07-17T07:28:40.073Z,1010.06
2018-07-17T07:29:49.494Z,1010.02
2018-07-17T07:30:58.667Z,1010.05
2018-07-17T07:32:07.923Z,1010.03
2018-07-17T07:33:17.067Z,1010.06
2018-07-17T07:34:25.956Z,1010.02
2018-07-17T07:35:35.701Z,1010.03
2018-07-17T07:36:45.110Z,1010.02
2018-07-17T07:37:54.520Z,1010.04
2018-07-17T07:39:03.928Z,1010.04
2018-07-17T07:40:13.095Z,1010.07
2018-07-17T07:41:22.759Z,1010.1
2018-07-17T07:42:32.154Z,1010.09
2018-07-17T07:43:41.882Z,1010.11
2018-07-17T07:44:51.564Z,1010.09
2018-07-17T07:46:00.717Z,1010.09
2018-07-17T07:47:10.128Z,1010.13
2018-07-17T07:48:19.301Z,1010.1
2018-07-17T07:49:28.207Z,1010.1
2018-07-17T07:50:37.365Z,1010.08
2018-07-17T07:51:47.019Z,1010.08
2018-07-17T07:52:56.173Z,1010.12
2018-07-17T07:54:05.836Z,1010.13
2018-07-17T07:55:15.525Z,1010.13
2018-07-17T07:56:25.184Z,1010.1
2018-07-17T07:57:34.641Z,1010.14
2018-07-17T07:58:44.065Z,1010.16
2018-07-17T07:59:53.231Z,1010.15
2018-07-17T08:01:02.646Z,1010.17
2018-07-17T08:02:11.541Z,1010.18
2018-07-17T08:03:20.686Z,1010.19
2018-07-17T08:04:30.362Z,1010.21
2018-07-17T08:05:39.306Z,1010.24
2018-07-17T08:06:48.480Z,1010.21
2018-07-17T08:07:57.377Z,1010.25
2018-07-17T08:09:06.782Z,1010.26
2018-07-17T08:10:16.200Z,1010.29
2018-07-17T08:11:25.626Z,1010.28
2018-07-17T08:12:35.421Z,1010.3
2018-07-17T08:13:44.832Z,1010.3
2018-07-17T08:14:54.262Z,1010.3
2018-07-17T08:16:03.418Z,1010.26
2018-07-17T08:17:12.305Z,1010.27
2018-07-17T08:18:21.711Z,1010.31
2018-07-17T08:19:30.609Z,1010.34
2018-07-17T08:20:40.021Z,1010.25
2018-07-17T08:21:49.177Z,1010.25
2018-07-17T08:22:58.863Z,1010.27
2018-07-17T08:24:07.758Z,1010.28
2018-07-17T08:25:18.010Z,1010.27
2018-07-17T08:26:27.158Z,1010.24
2018-07-17T08:27:36.574Z,1010.24
2018-07-17T08:28:46.486Z,1010.21
2018-07-17T08:29:55.890Z,1010.26
2018-07-17T08:31:05.302Z,1010.3
2018-07-17T08:32:14.709Z,1010.28
2018-07-17T08:33:23.365Z,1010.27
2018-07-17T08:34:32.774Z,1010.23
2018-07-17T08:35:42.182Z,1010.21
2018-07-17T08:36:52.106Z,1010.21
2018-07-17T08:38:01.518Z,1010.21
2018-07-17T08:39:11.458Z,1010.24
2018-07-17T08:40:20.894Z,1010.24
2018-07-17T08:41:30.299Z,1010.22
2018-07-17T08:42:39.967Z,1010.27
2018-07-17T08:43:49.118Z,1010.31
2018-07-17T08:44:58.022Z,1010.28
2018-07-17T08:46:07.168Z,1010.3
2018-07-17T08:47:16.575Z,1010.28
2018-07-17T08:48:25.469Z,1010.31
2018-07-17T08:49:35.148Z,1010.28
2018-07-17T08:50:44.806Z,1010.28
2018-07-17T08:51:53.976Z,1010.28
2018-07-17T08:53:03.439Z,1010.3
2018-07-17T08:54:12.330Z,1010.27
2018-07-17T08:55:22.014Z,1010.31
2018-07-17T08:56:31.684Z,1010.3
2018-07-17T08:57:41.088Z,1010.29
2018-07-17T08:58:50.754Z,1010.28
2018-07-17T08:59:59.646Z,1010.28
2018-07-17T09:01:09.311Z,1010.29
2018-07-17T09:02:19.029Z,1010.32
2018-07-17T09:03:27.646Z,1010.31
2018-07-17T09:04:37.328Z,1010.32
2018-07-17T09:05:47.006Z,1010.3
2018-07-17T09:06:56.940Z,1010.29
2018-07-17T09:08:06.077Z,1010.28
2018-07-17T09:09:15.493Z,1010.27
2018-07-17T09:10:24.901Z,1010.33
2018-07-17T09:11:34.302Z,1010.31
2018-07-17T09:12:43.728Z,1010.34
2018-07-17T09:13:53.559Z,1010.37
2018-07-17T09:15:03.003Z,1010.37
2018-07-17T09:16:12.402Z,1010.39
2018-07-17T09:17:21.826Z,1010.36
2018-07-17T09:18:31.277Z,1010.41
2018-07-17T09:19:41.202Z,1010.39
2018-07-17T09:20:50.632Z,1010.37
2018-07-17T09:22:00.296Z,1010.38
2018-07-17T09:23:09.970Z,1010.39
2018-07-17T09:24:18.861Z,1010.4
2018-07-17T09:25:27.771Z,1010.37
2018-07-17T09:26:37.187Z,1010.4
2018-07-17T09:27:46.858Z,1010.37
2018-07-17T09:28:56.796Z,1010.32
2018-07-17T09:30:06.375Z,1010.39
2018-07-17T09:31:15.825Z,1010.39
2018-07-17T09:32:24.980Z,1010.35
2018-07-17T09:33:34.211Z,1010.35
2018-07-17T09:34:43.476Z,1010.33
2018-07-17T09:35:52.912Z,1010.27
2018-07-17T09:37:02.056Z,1010.32
2018-07-17T09:38:11.239Z,1010.29
2018-07-17T09:39:21.154Z,1010.31
2018-07-17T09:40:30.417Z,1010.35
2018-07-17T09:41:39.825Z,1010.32
2018-07-17T09:42:48.968Z,1010.37
2018-07-17T09:43:58.374Z,1010.35
2018-07-17T09:45:07.781Z,1010.33
2018-07-17T09:46:17.195Z,1010.33
2018-07-17T09:47:26.599Z,1010.34
2018-07-17T09:48:35.510Z,1010.37
2018-07-17T09:49:44.659Z,1010.41
2018-07-17T09:50:53.862Z,1010.38
2018-07-17T09:52:03.556Z,1010.41
2018-07-17T09:53:12.965Z,1010.4
2018-07-17T09:54:21.908Z,1010.44
2018-07-17T09:55:32.410Z,1010.45
2018-07-17T09:56:41.860Z,1010.46
2018-07-17T09:57:51.533Z,1010.44
2018-07-17T09:59:00.431Z,1010.5
2018-07-17T10:00:10.103Z,1010.5
2018-07-17T10:01:19.760Z,1010.51
2018-07-17T10:02:28.919Z,1010.52
2018-07-17T10:03:38.091Z,1010.54
2018-07-17T10:04:47.818Z,1010.5
2018-07-17T10:05:57.562Z,1010.54
2018-07-17T10:07:06.980Z,1010.55
2018-07-17T10:08:16.648Z,1010.51
2018-07-17T10:09:26.104Z,1010.47
2018-07-17T10:10:35.627Z,1010.5
2018-07-17T10:11:45.301Z,1010.49
2018-07-17T10:12:54.472Z,1010.48
2018-07-17T10:14:04.144Z,1010.46
2018-07-17T10:15:13.563Z,1010.46
2018-07-17T10:16:22.970Z,1010.46
2018-07-17T10:17:32.389Z,1010.52
2018-07-17T10:18:42.313Z,1010.48
2018-07-17T10:19:51.788Z,1010.46
2018-07-17T10:21:02.078Z,1010.47
2018-07-17T10:22:11.790Z,1010.49
2018-07-17T10:23:21.256Z,1010.46
2018-07-17T10:24:30.656Z,1010.45
2018-07-17T10:25:40.061Z,1010.43
2018-07-17T10:26:49.995Z,1010.46
2018-07-17T10:27:59.163Z,1010.47
2018-07-17T10:29:08.570Z,1010.5
2018-07-17T10:30:17.744Z,1010.47
2018-07-17T10:31:26.898Z,1010.49
2018-07-17T10:32:35.825Z,1010.43
2018-07-17T10:33:45.498Z,1010.4
2018-07-17T10:34:54.640Z,1010.39
2018-07-17T10:36:04.055Z,1010.36
2018-07-17T10:37:13.725Z,1010.41
2018-07-17T10:38:23.633Z,1010.37
2018-07-17T10:39:33.132Z,1010.41
2018-07-17T10:40:43.048Z,1010.37
2018-07-17T10:41:52.712Z,1010.41
2018-07-17T10:43:01.882Z,1010.35
2018-07-17T10:44:11.305Z,1010.37
2018-07-17T10:45:20.711Z,1010.43
2018-07-17T10:46:30.375Z,1010.44
2018-07-17T10:47:40.419Z,1010.46
2018-07-17T10:48:49.886Z,1010.46
2018-07-17T10:49:59.296Z,1010.41
2018-07-17T10:51:08.706Z,1010.46
2018-07-17T10:52:18.141Z,1010.41
2018-07-17T10:53:27.560Z,1010.41
2018-07-17T10:54:36.973Z,1010.38
2018-07-17T10:55:46.125Z,1010.4
2018-07-17T10:56:55.527Z,1010.38
2018-07-17T10:58:05.210Z,1010.38
2018-07-17T10:59:14.625Z,1010.31
2018-07-17T11:00:24.056Z,1010.37
2018-07-17T11:01:33.213Z,1010.37
2018-07-17T11:02:42.882Z,1010.35
2018-07-17T11:03:52.038Z,1010.31
2018-07-17T11:05:01.955Z,1010.33
2018-07-17T11:06:11.635Z,1010.37
2018-07-17T11:07:21.299Z,1010.35
2018-07-17T11:08:30.519Z,1010.29
2018-07-17T11:09:39.765Z,1010.31
2018-07-17T11:10:48.913Z,1010.34
2018-07-17T11:11:58.572Z,1010.33
2018-07-17T11:13:07.782Z,1010.3
2018-07-17T11:14:17.447Z,1010.24
2018-07-17T11:15:26.083Z,1010.3
2018-07-17T11:16:35.254Z,1010.3
2018-07-17T11:17:44.917Z,1010.29
2018-07-17T11:18:54.316Z,1010.32
2018-07-17T11:20:03.211Z,1010.23
2018-07-17T11:21:12.366Z,1010.3
2018-07-17T11:22:21.774Z,1010.24
2018-07-17T11:23:31.186Z,1010.29
2018-07-17T11:24:40.086Z,1010.27
2018-07-17T11:25:49.744Z,1010.25
2018-07-17T11:26:58.643Z,1010.22
2018-07-17T11:28:07.805Z,1010.31
2018-07-17T11:29:17.468Z,1010.27
2018-07-17T11:30:26.605Z,1010.24
2018-07-17T11:31:36.005Z,1010.19
2018-07-17T11:32:45.691Z,1010.17
2018-07-17T11:33:55.626Z,1010.23
2018-07-17T11:35:04.781Z,1010.23
2018-07-17T11:36:13.922Z,1010.14
2018-07-17T11:37:23.073Z,1010.17
2018-07-17T11:38:32.479Z,1010.17
2018-07-17T11:39:42.023Z,1010.2
2018-07-17T11:40:51.223Z,1010.19
2018-07-17T11:42:00.643Z,1010.18
2018-07-17T11:43:09.801Z,1010.14
2018-07-17T11:44:19.479Z,1010.14
2018-07-17T11:45:29.156Z,1010.17
2018-07-17T11:46:38.833Z,1010.16
2018-07-17T11:47:48.577Z,1010.19
2018-07-17T11:48:58.502Z,1010.16
2018-07-17T11:50:07.974Z,1010.16
2018-07-17T11:51:17.145Z,1010.1
2018-07-17T11:52:26.290Z,1010.15
2018-07-17T11:53:35.697Z,1010.12
2018-07-17T11:54:45.357Z,1010.14
2018-07-17T11:55:54.251Z,1010.14
2018-07-17T11:57:03.399Z,1010.11
2018-07-17T11:58:12.809Z,1010.09
2018-07-17T11:59:22.572Z,1010.11
2018-07-17T12:00:32.949Z,1010.1
2018-07-17T12:01:41.862Z,1010.12
2018-07-17T12:02:51.018Z,1010.06
2018-07-17T12:04:00.695Z,1010.06
2018-07-17T12:05:10.359Z,1010.09
2018-07-17T12:06:19.504Z,1009.98
2018-07-17T12:07:28.659Z,1009.95
2018-07-17T12:08:37.802Z,1009.98
2018-07-17T12:09:47.557Z,1010
2018-07-17T12:10:56.967Z,1009.98
2018-07-17T12:12:06.161Z,1010
2018-07-17T12:13:15.066Z,1010
2018-07-17T12:14:24.213Z,1009.98
2018-07-17T12:15:33.430Z,1009.99
2018-07-17T12:16:43.136Z,1009.95
2018-07-17T12:17:52.549Z,1009.97
2018-07-17T12:19:01.959Z,1010.03
2018-07-17T12:20:11.409Z,1009.99
2018-07-17T12:21:20.947Z,1009.97
2018-07-17T12:22:30.614Z,1009.99
2018-07-17T12:23:39.780Z,1010
2018-07-17T12:24:48.922Z,1010.01
2018-07-17T12:25:58.361Z,1010.01
2018-07-17T12:27:07.784Z,1009.98
2018-07-17T12:28:17.455Z,1009.96
2018-07-17T12:29:26.623Z,1009.97
2018-07-17T12:30:35.765Z,1009.92
2018-07-17T12:31:45.431Z,1009.89
2018-07-17T12:32:54.074Z,1009.91
2018-07-17T12:34:03.759Z,1009.89
2018-07-17T12:35:12.655Z,1009.97
2018-07-17T12:36:22.050Z,1009.91
2018-07-17T12:37:31.451Z,1009.91
2018-07-17T12:38:40.881Z,1009.99
2018-07-17T12:39:50.819Z,1009.96
2018-07-17T12:40:59.991Z,1009.94
2018-07-17T12:42:09.394Z,1010.02
2018-07-17T12:43:18.546Z,1010.02
2018-07-17T12:44:28.081Z,1009.99
2018-07-17T12:45:37.352Z,1010
2018-07-17T12:46:46.000Z,1010
2018-07-17T12:47:55.427Z,1010.01
2018-07-17T12:49:04.852Z,1010.01
2018-07-17T12:50:14.519Z,1009.99
2018-07-17T12:51:23.686Z,1010
2018-07-17T12:52:33.094Z,1010
2018-07-17T12:53:42.746Z,1009.99
2018-07-17T12:54:52.311Z,1010.01
2018-07-17T12:56:01.972Z,1010.02
2018-07-17T12:57:11.120Z,1009.98
2018-07-17T12:58:20.020Z,1010
2018-07-17T12:59:29.686Z,1009.99
2018-07-17T13:00:38.589Z,1009.99
2018-07-17T13:01:47.995Z,1010.02
2018-07-17T13:02:57.668Z,1010.06
2018-07-17T13:04:06.819Z,1010.01
2018-07-17T13:05:16.492Z,1010
2018-07-17T13:06:26.175Z,1010.06
2018-07-17T13:07:35.570Z,1009.98
2018-07-17T13:08:44.990Z,1009.97
2018-07-17T13:09:54.414Z,1009.95
2018-07-17T13:11:03.307Z,1009.99
2018-07-17T13:12:12.232Z,1009.94
2018-07-17T13:13:22.170Z,1009.98
2018-07-17T13:14:31.603Z,1009.96
2018-07-17T13:15:40.750Z,1009.91
2018-07-17T13:16:49.920Z,1009.93
2018-07-17T13:17:59.600Z,1009.98
2018-07-17T13:19:09.281Z,1009.92
2018-07-17T13:20:18.776Z,1009.93
2018-07-17T13:21:27.675Z,1009.95
2018-07-17T13:22:36.577Z,1009.93
2018-07-17T13:23:46.109Z,1009.97
2018-07-17T13:24:55.950Z,1009.97
2018-07-17T13:26:05.385Z,1009.95
2018-07-17T13:27:15.050Z,1009.83
2018-07-17T13:28:24.994Z,1009.79
2018-07-17T13:29:33.880Z,1009.8
2018-07-17T13:30:42.789Z,1009.8
2018-07-17T13:31:51.997Z,1009.85
2018-07-17T13:33:00.893Z,1009.82
2018-07-17T13:34:10.048Z,1009.9
2018-07-17T13:35:19.969Z,1009.92
2018-07-17T13:36:29.166Z,1009.88
2018-07-17T13:37:38.878Z,1009.88
2018-07-17T13:38:48.282Z,1009.86
2018-07-17T13:39:57.689Z,1009.89
2018-07-17T13:41:06.847Z,1009.91
2018-07-17T13:42:16.292Z,1009.93
2018-07-17T13:43:25.951Z,1009.9
2018-07-17T13:44:35.419Z,1009.96
2018-07-17T13:45:45.648Z,1009.88
2018-07-17T13:46:55.610Z,1009.87
2018-07-17T13:48:04.752Z,1009.83
2018-07-17T13:49:13.899Z,1009.86
2018-07-17T13:50:23.091Z,1009.86
2018-07-17T13:51:33.078Z,1009.84
2018-07-17T13:52:42.792Z,1009.88
2018-07-17T13:53:52.385Z,1009.87
2018-07-17T13:55:01.389Z,1009.89
2018-07-17T13:56:10.830Z,1009.81
2018-07-17T13:57:20.817Z,1009.72
2018-07-17T13:58:30.239Z,1009.77
2018-07-17T13:59:39.640Z,1009.8
2018-07-17T14:00:48.809Z,1009.81
2018-07-17T14:01:57.707Z,1009.86
2018-07-17T14:03:07.117Z,1009.82
2018-07-17T14:04:16.793Z,1009.83